createdAt,value
2024-03-26T00:00:03.998Z,88.60
2024-03-26T00:01:03.974Z,88.70
2024-03-26T00:02:03.961Z,88.60
2024-03-26T00:03:03.960Z,88.49
2024-03-26T00:04:03.940Z,88.49
2024-03-26T00:05:03.983Z,88.49
2024-03-26T00:06:03.921Z,88.60
2024-03-26T00:07:03.918Z,88.39
2024-03-26T00:08:03.898Z,88.49
2024-03-26T00:09:03.903Z,88.39
2024-03-26T00:10:03.883Z,88.22
2024-03-26T00:11:03.896Z,88.12
2024-03-26T00:12:03.876Z,88.22
2024-03-26T00:13:03.860Z,88.22
2024-03-26T00:14:03.866Z,88.22
2024-03-26T00:15:03.822Z,88.22
2024-03-26T00:16:03.822Z,88.22
2024-03-26T00:17:03.828Z,88.12
2024-03-26T00:18:03.798Z,88.12
2024-03-26T00:19:03.788Z,88.01
2024-03-26T00:20:03.786Z,88.01
2024-03-26T00:21:03.770Z,88.01
2024-03-26T00:22:03.748Z,87.91
2024-03-26T00:23:03.780Z,88.01
2024-03-26T00:24:03.727Z,87.91
2024-03-26T00:25:03.746Z,87.91
2024-03-26T00:26:03.729Z,87.91
2024-03-26T00:27:03.697Z,87.81
2024-03-26T00:28:03.719Z,87.81
2024-03-26T00:29:03.712Z,88.01
2024-03-26T00:30:03.693Z,88.01
2024-03-26T00:31:03.677Z,87.91
2024-03-26T00:32:03.654Z,87.91
2024-03-26T00:33:03.669Z,87.81
2024-03-26T00:34:03.647Z,87.70
2024-03-26T00:35:03.676Z,87.60
2024-03-26T00:36:03.612Z,87.28
2024-03-26T00:37:03.607Z,87.60
2024-03-26T00:38:03.600Z,87.49
2024-03-26T00:39:03.584Z,87.18
2024-03-26T00:40:03.573Z,87.18
2024-03-26T00:41:03.592Z,87.07
2024-03-26T00:42:03.547Z,87.07
2024-03-26T00:43:03.548Z,87.22
2024-03-26T00:44:03.531Z,87.22
2024-03-26T00:45:05.469Z,87.43
2024-03-26T00:46:03.508Z,87.43
2024-03-26T00:47:03.539Z,87.43
2024-03-26T00:48:03.522Z,87.32
2024-03-26T00:49:03.484Z,87.32
2024-03-26T00:50:03.472Z,87.32
2024-03-26T00:51:03.478Z,87.32
2024-03-26T00:52:03.449Z,87.32
2024-03-26T00:53:03.474Z,87.43
2024-03-26T00:54:03.432Z,87.32
2024-03-26T00:55:03.451Z,87.53
2024-03-26T00:56:03.413Z,87.63
2024-03-26T00:57:03.406Z,87.74
2024-03-26T00:58:03.397Z,87.63
2024-03-26T00:59:03.417Z,87.53
2024-03-26T01:00:03.368Z,87.53
2024-03-26T01:01:03.366Z,87.53
2024-03-26T01:02:03.355Z,87.63
2024-03-26T01:03:03.348Z,87.63
2024-03-26T01:04:03.329Z,87.78
2024-03-26T01:05:03.348Z,87.26
2024-03-26T01:06:03.296Z,87.68
2024-03-26T01:07:03.309Z,88.20
2024-03-26T01:08:03.296Z,88.93
2024-03-26T01:09:03.290Z,89.14
2024-03-26T01:10:03.286Z,89.03
2024-03-26T01:11:03.282Z,89.18
2024-03-26T01:12:03.242Z,88.76
2024-03-26T01:13:03.254Z,88.65
2024-03-26T01:14:03.239Z,89.18
2024-03-26T01:15:03.246Z,89.07
2024-03-26T01:16:03.220Z,88.97
2024-03-26T01:17:03.239Z,89.70
2024-03-26T01:18:03.195Z,90.12
2024-03-26T01:19:03.202Z,90.01
2024-03-26T01:20:03.158Z,90.06
2024-03-26T01:21:03.166Z,90.06
2024-03-26T01:22:03.184Z,90.16
2024-03-26T01:23:03.195Z,90.26
2024-03-26T01:24:03.128Z,90.16
2024-03-26T01:25:03.129Z,90.26
2024-03-26T01:26:03.106Z,90.06
2024-03-26T01:27:03.094Z,89.84
2024-03-26T01:28:03.094Z,89.64
2024-03-26T01:29:03.349Z,89.43
2024-03-26T01:30:03.092Z,89.32
2024-03-26T01:31:03.052Z,89.84
2024-03-26T01:32:03.041Z,89.84
2024-03-26T01:33:03.044Z,90.06
2024-03-26T01:34:03.040Z,89.74
2024-03-26T01:35:03.056Z,89.43
2024-03-26T01:36:03.012Z,89.78
2024-03-26T01:37:02.993Z,89.58
2024-03-26T01:38:02.988Z,89.05
2024-03-26T01:39:02.983Z,89.26
2024-03-26T01:40:02.959Z,89.58
2024-03-26T01:41:02.995Z,89.47
2024-03-26T01:42:02.935Z,89.47
2024-03-26T01:43:02.947Z,89.47
2024-03-26T01:44:02.975Z,89.47
2024-03-26T01:45:02.930Z,89.68
2024-03-26T01:46:02.930Z,89.68
2024-03-26T01:47:02.944Z,89.51
2024-03-26T01:48:02.875Z,89.09
2024-03-26T01:49:02.881Z,88.99
2024-03-26T01:50:02.869Z,88.88
2024-03-26T01:51:02.856Z,88.88
2024-03-26T01:52:02.854Z,89.09
2024-03-26T01:53:02.856Z,89.34
2024-03-26T01:54:02.828Z,89.45
2024-03-26T01:55:02.810Z,89.65
2024-03-26T01:56:02.805Z,89.86
2024-03-26T01:57:02.806Z,90.08
2024-03-26T01:58:02.793Z,90.18
2024-03-26T01:59:02.798Z,90.18
2024-03-26T02:00:02.774Z,90.08
2024-03-26T02:01:02.742Z,90.11
2024-03-26T02:02:02.750Z,89.80
2024-03-26T02:03:02.735Z,89.70
2024-03-26T02:04:02.714Z,90.43
2024-03-26T02:05:02.726Z,90.22
2024-03-26T02:06:02.717Z,90.11
2024-03-26T02:07:02.697Z,90.11
2024-03-26T02:08:02.713Z,90.58
2024-03-26T02:09:02.662Z,90.78
2024-03-26T02:10:02.681Z,91.09
2024-03-26T02:11:02.758Z,91.31
2024-03-26T02:12:02.642Z,91.09
2024-03-26T02:13:02.625Z,90.99
2024-03-26T02:14:02.621Z,91.20
2024-03-26T02:15:02.612Z,91.41
2024-03-26T02:16:02.591Z,91.94
2024-03-26T02:17:02.702Z,92.04
2024-03-26T02:18:02.590Z,91.83
2024-03-26T02:19:02.556Z,91.87
2024-03-26T02:20:02.583Z,92.61
2024-03-26T02:21:02.542Z,93.34
2024-03-26T02:22:02.535Z,93.76
2024-03-26T02:23:02.564Z,93.65
2024-03-26T02:24:02.519Z,93.65
2024-03-26T02:25:02.514Z,93.65
2024-03-26T02:26:02.519Z,93.55
2024-03-26T02:27:02.481Z,93.65
2024-03-26T02:28:02.484Z,93.55
2024-03-26T02:29:02.500Z,93.34
2024-03-26T02:30:02.471Z,93.44
2024-03-26T02:31:02.440Z,94.28
2024-03-26T02:32:02.451Z,94.38
2024-03-26T02:33:02.423Z,94.18
2024-03-26T02:34:02.423Z,94.07
2024-03-26T02:35:02.413Z,94.18
2024-03-26T02:36:02.418Z,94.38
2024-03-26T02:37:02.382Z,94.70
2024-03-26T02:38:02.406Z,95.33
2024-03-26T02:39:02.376Z,95.64
2024-03-26T02:40:02.343Z,95.75
2024-03-26T02:41:02.394Z,95.86
2024-03-26T02:42:02.337Z,95.75
2024-03-26T02:43:02.331Z,95.96
2024-03-26T02:44:02.308Z,96.48
2024-03-26T02:45:02.304Z,96.69
2024-03-26T02:46:02.294Z,96.90
2024-03-26T02:47:02.312Z,97.00
2024-03-26T02:48:02.296Z,97.32
2024-03-26T02:49:02.258Z,97.22
2024-03-26T02:50:02.287Z,97.00
2024-03-26T02:51:02.260Z,97.00
2024-03-26T02:52:02.247Z,96.69
2024-03-26T02:53:02.308Z,96.59
2024-03-26T02:54:02.207Z,96.75
2024-03-26T02:55:02.188Z,97.00
2024-03-26T02:56:02.189Z,97.06
2024-03-26T02:57:02.177Z,97.28
2024-03-26T02:58:02.186Z,97.17
2024-03-26T02:59:02.191Z,97.17
2024-03-26T03:00:02.167Z,97.06
2024-03-26T03:01:02.142Z,97.06
2024-03-26T03:02:02.143Z,97.11
2024-03-26T03:03:02.125Z,96.96
2024-03-26T03:04:02.129Z,96.75
2024-03-26T03:05:02.131Z,96.75
2024-03-26T03:06:02.111Z,97.11
2024-03-26T03:07:02.074Z,97.06
2024-03-26T03:08:02.083Z,97.17
2024-03-26T03:09:02.045Z,97.06
2024-03-26T03:10:02.049Z,97.17
2024-03-26T03:11:02.060Z,97.06
2024-03-26T03:12:02.023Z,97.17
2024-03-26T03:13:02.044Z,97.06
2024-03-26T03:14:02.027Z,97.06
2024-03-26T03:15:01.994Z,97.06
2024-03-26T03:16:01.989Z,96.90
2024-03-26T03:17:02.097Z,96.75
2024-03-26T03:18:01.966Z,96.96
2024-03-26T03:19:01.946Z,97.28
2024-03-26T03:20:01.967Z,97.28
2024-03-26T03:21:01.951Z,97.38
2024-03-26T03:22:01.950Z,97.49
2024-03-26T03:23:01.954Z,97.28
2024-03-26T03:24:01.923Z,97.28
2024-03-26T03:25:01.891Z,97.38
2024-03-26T03:26:01.882Z,97.38
2024-03-26T03:27:01.887Z,97.28
2024-03-26T03:28:01.869Z,97.06
2024-03-26T03:29:01.870Z,96.96
2024-03-26T03:30:01.861Z,96.86
2024-03-26T03:31:01.830Z,96.96
2024-03-26T03:32:01.832Z,97.06
2024-03-26T03:33:01.821Z,96.75
2024-03-26T03:34:01.808Z,96.65
2024-03-26T03:35:01.829Z,96.48
2024-03-26T03:36:01.780Z,96.48
2024-03-26T03:37:01.776Z,96.48
2024-03-26T03:38:01.762Z,96.48
2024-03-26T03:39:01.769Z,96.48
2024-03-26T03:40:01.741Z,96.80
2024-03-26T03:41:01.747Z,97.32
2024-03-26T03:42:01.729Z,97.32
2024-03-26T03:43:01.713Z,97.11
2024-03-26T03:44:01.706Z,97.11
2024-03-26T03:45:01.692Z,97.32
2024-03-26T03:46:01.708Z,97.53
2024-03-26T03:47:01.691Z,97.22
2024-03-26T03:48:01.654Z,97.11
2024-03-26T03:49:01.646Z,96.69
2024-03-26T03:50:01.703Z,96.59
2024-03-26T03:51:01.634Z,96.69
2024-03-26T03:52:01.622Z,96.37
2024-03-26T03:53:01.626Z,96.06
2024-03-26T03:54:01.609Z,96.17
2024-03-26T03:55:01.582Z,96.17
2024-03-26T03:56:01.607Z,95.96
2024-03-26T03:57:01.570Z,95.96
2024-03-26T03:58:01.564Z,95.90
2024-03-26T03:59:01.584Z,95.90
2024-03-26T04:00:01.586Z,95.68
2024-03-26T04:01:01.535Z,95.27
2024-03-26T04:02:01.552Z,95.37
2024-03-26T04:03:01.535Z,95.27
2024-03-26T04:04:01.523Z,95.27
2024-03-26T04:05:01.534Z,95.27
2024-03-26T04:06:01.473Z,95.21
2024-03-26T04:07:01.469Z,95.42
2024-03-26T04:08:01.463Z,95.31
2024-03-26T04:09:01.450Z,95.21
2024-03-26T04:10:01.486Z,95.21
2024-03-26T04:11:01.452Z,95.52
2024-03-26T04:12:01.458Z,95.42
2024-03-26T04:13:01.461Z,95.21
2024-03-26T04:14:01.435Z,95.21
2024-03-26T04:15:01.436Z,95.21
2024-03-26T04:16:01.407Z,95.10
2024-03-26T04:17:01.393Z,95.15
2024-03-26T04:18:01.411Z,95.15
2024-03-26T04:19:01.406Z,95.36
2024-03-26T04:20:01.377Z,95.56
2024-03-26T04:21:01.348Z,95.88
2024-03-26T04:22:01.347Z,95.88
2024-03-26T04:23:01.323Z,96.09
2024-03-26T04:24:01.331Z,96.09
2024-03-26T04:25:01.311Z,96.09
2024-03-26T04:26:02.218Z,96.09
2024-03-26T04:27:01.346Z,96.30
2024-03-26T04:28:01.258Z,96.93
2024-03-26T04:29:01.320Z,97.03
2024-03-26T04:30:01.231Z,97.66
2024-03-26T04:31:01.308Z,97.77
2024-03-26T04:32:01.208Z,97.56
2024-03-26T04:33:01.226Z,97.35
2024-03-26T04:34:01.191Z,97.24
2024-03-26T04:35:01.225Z,97.45
2024-03-26T04:36:01.186Z,97.29
2024-03-26T04:37:01.190Z,97.08
2024-03-26T04:38:01.150Z,96.97
2024-03-26T04:39:01.151Z,96.97
2024-03-26T04:40:01.145Z,97.18
2024-03-26T04:41:01.163Z,97.39
2024-03-26T04:42:01.108Z,97.81
2024-03-26T04:43:01.113Z,98.02
2024-03-26T04:44:01.112Z,98.13
2024-03-26T04:45:01.103Z,98.34
2024-03-26T04:46:01.070Z,98.44
2024-03-26T04:47:01.105Z,98.61
2024-03-26T04:48:01.090Z,98.92
2024-03-26T04:49:01.062Z,99.24
2024-03-26T04:50:01.061Z,99.34
2024-03-26T04:51:01.028Z,99.34
2024-03-26T04:52:01.011Z,99.13
2024-03-26T04:53:01.031Z,99.13
2024-03-26T04:54:01.003Z,99.13
2024-03-26T04:55:00.993Z,99.03
2024-03-26T04:56:00.981Z,99.03
2024-03-26T04:57:00.998Z,99.03
2024-03-26T04:58:00.957Z,99.13
2024-03-26T04:59:00.971Z,99.24
2024-03-26T05:00:00.951Z,99.34
2024-03-26T05:01:00.935Z,99.24
2024-03-26T05:02:00.917Z,99.24
2024-03-26T05:03:00.926Z,99.13
2024-03-26T05:04:00.894Z,99.24
2024-03-26T05:05:00.919Z,99.24
2024-03-26T05:06:00.880Z,99.24
2024-03-26T05:07:00.862Z,99.24
2024-03-26T05:08:00.881Z,99.24
2024-03-26T05:09:00.840Z,99.24
2024-03-26T05:10:00.845Z,99.34
2024-03-26T05:11:00.913Z,99.34
2024-03-26T05:12:00.842Z,99.34
2024-03-26T05:13:00.812Z,99.34
2024-03-26T05:14:00.810Z,99.34
2024-03-26T05:15:00.784Z,99.24
2024-03-26T05:16:03.762Z,99.24
2024-03-26T05:17:00.789Z,99.24
2024-03-26T05:18:00.773Z,99.24
2024-03-26T05:19:00.746Z,99.08
2024-03-26T05:20:00.741Z,99.13
2024-03-26T05:21:00.734Z,99.13
2024-03-26T05:22:00.712Z,99.19
2024-03-26T05:23:00.769Z,99.19
2024-03-26T05:24:00.686Z,99.08
2024-03-26T05:25:00.726Z,98.98
2024-03-26T05:26:00.698Z,98.98
2024-03-26T05:27:00.727Z,99.08
2024-03-26T05:28:00.691Z,99.08
2024-03-26T05:29:00.754Z,99.08
2024-03-26T05:30:00.662Z,98.94
2024-03-26T05:31:00.646Z,98.94
2024-03-26T05:32:00.630Z,98.94
2024-03-26T05:33:00.610Z,98.94
2024-03-26T05:34:00.609Z,99.04
2024-03-26T05:35:00.695Z,99.15
2024-03-26T05:36:00.568Z,99.15
2024-03-26T05:37:00.566Z,99.15
2024-03-26T05:38:00.560Z,99.00
2024-03-26T05:39:00.538Z,99.10
2024-03-26T05:40:00.540Z,99.21
2024-03-26T05:41:00.539Z,99.41
2024-03-26T05:42:00.521Z,99.52
2024-03-26T05:43:00.527Z,99.63
2024-03-26T05:44:00.487Z,99.73
2024-03-26T05:45:00.489Z,99.73
2024-03-26T05:46:00.480Z,99.63
2024-03-26T05:47:00.487Z,99.79
2024-03-26T05:48:00.444Z,99.99
2024-03-26T05:49:00.435Z,99.99
2024-03-26T05:50:00.444Z,99.90
2024-03-26T05:51:00.421Z,99.68
2024-03-26T05:52:00.409Z,99.79
2024-03-26T05:53:00.425Z,99.85
2024-03-26T05:54:00.390Z,99.95
2024-03-26T05:55:00.405Z,99.99
2024-03-26T05:56:00.366Z,99.99
2024-03-26T05:57:00.386Z,99.95
2024-03-26T05:58:00.346Z,99.99
2024-03-26T05:59:08.353Z,99.99
2024-03-26T06:00:00.370Z,99.99
2024-03-26T06:01:00.324Z,99.99
2024-03-26T06:02:00.319Z,99.99
2024-03-26T06:03:00.308Z,99.99
2024-03-26T06:04:02.539Z,99.99
2024-03-26T06:05:00.302Z,99.82
2024-03-26T06:06:00.263Z,99.82
2024-03-26T06:07:00.259Z,99.71
2024-03-26T06:08:00.246Z,99.61
2024-03-26T06:09:00.287Z,99.56
2024-03-26T06:10:00.250Z,99.46
2024-03-26T06:11:00.385Z,98.99
2024-03-26T06:12:00.219Z,98.37
2024-03-26T06:13:00.207Z,97.59
2024-03-26T06:14:00.205Z,96.76
2024-03-26T06:15:00.190Z,96.13
2024-03-26T06:16:00.174Z,95.67
2024-03-26T06:17:00.176Z,95.46
2024-03-26T06:18:00.153Z,94.52
2024-03-26T06:19:00.138Z,93.96
2024-03-26T06:20:00.187Z,93.85
2024-03-26T06:21:00.113Z,93.33
2024-03-26T06:22:00.159Z,92.87
2024-03-26T06:23:00.129Z,92.77
2024-03-26T06:24:00.080Z,92.25
2024-03-26T06:25:00.111Z,90.68
2024-03-26T06:26:00.065Z,90.44
2024-03-26T06:27:00.066Z,89.81
2024-03-26T06:28:00.049Z,89.70
2024-03-26T06:29:00.053Z,89.39
2024-03-26T06:30:00.041Z,89.14
2024-03-26T06:31:00.039Z,88.42
2024-03-26T06:32:00.002Z,88.62
2024-03-26T06:32:59.991Z,88.42
2024-03-26T06:33:59.986Z,87.89
2024-03-26T06:34:59.992Z,87.99
2024-03-26T06:35:59.963Z,87.23
2024-03-26T06:36:59.953Z,87.12
2024-03-26T06:37:59.965Z,87.33
2024-03-26T06:38:59.921Z,87.54
2024-03-26T06:39:59.921Z,87.65
2024-03-26T06:41:00.024Z,86.77
2024-03-26T06:41:59.927Z,86.67
2024-03-26T06:42:59.896Z,86.67
2024-03-26T06:43:59.885Z,86.52
2024-03-26T06:44:59.870Z,86.52
2024-03-26T06:45:59.874Z,86.73
2024-03-26T06:46:59.859Z,86.59
2024-03-26T06:47:59.842Z,85.34
2024-03-26T06:48:59.826Z,84.47
2024-03-26T06:49:59.828Z,84.16
2024-03-26T06:50:59.808Z,84.05
2024-03-26T06:51:59.803Z,83.91
2024-03-26T06:52:59.843Z,83.60
2024-03-26T06:53:59.782Z,82.63
2024-03-26T06:54:59.769Z,81.49
2024-03-26T06:55:59.763Z,81.14
2024-03-26T06:56:59.747Z,81.45
2024-03-26T06:57:59.736Z,81.30
2024-03-26T06:58:59.752Z,81.20
2024-03-26T06:59:59.729Z,80.65
2024-03-26T07:00:59.738Z,80.33
2024-03-26T07:01:59.698Z,79.82
2024-03-26T07:02:59.677Z,80.09
2024-03-26T07:03:59.681Z,78.33
2024-03-26T07:04:59.688Z,77.81
2024-03-26T07:05:59.672Z,78.33
2024-03-26T07:06:59.637Z,77.47
2024-03-26T07:07:59.632Z,77.36
2024-03-26T07:08:59.614Z,78.61
2024-03-26T07:09:59.617Z,78.61
2024-03-26T07:10:59.645Z,76.84
2024-03-26T07:11:59.592Z,77.47
2024-03-26T07:12:59.581Z,77.78
2024-03-26T07:13:59.587Z,77.33
2024-03-26T07:14:59.561Z,76.61
2024-03-26T07:15:59.550Z,76.61
2024-03-26T07:16:59.594Z,76.40
2024-03-26T07:17:59.526Z,76.36
2024-03-26T07:18:59.559Z,77.39
2024-03-26T07:19:59.516Z,76.01
2024-03-26T07:20:59.498Z,76.91
2024-03-26T07:21:59.482Z,76.39
2024-03-26T07:22:59.489Z,75.26
2024-03-26T07:23:59.470Z,74.08
2024-03-26T07:24:59.452Z,74.57
2024-03-26T07:25:59.463Z,73.43
2024-03-26T07:26:59.451Z,72.91
2024-03-26T07:27:59.421Z,73.19
2024-03-26T07:28:59.488Z,73.50
2024-03-26T07:29:59.420Z,72.33
2024-03-26T07:30:59.398Z,73.77
2024-03-26T07:31:59.372Z,73.16
2024-03-26T07:32:59.407Z,71.41
2024-03-26T07:33:59.354Z,71.99
2024-03-26T07:34:59.385Z,72.09
2024-03-26T07:35:59.343Z,72.71
2024-03-26T07:36:59.366Z,72.67
2024-03-26T07:37:59.320Z,71.75
2024-03-26T07:38:59.336Z,71.75
2024-03-26T07:39:59.292Z,71.41
2024-03-26T07:40:59.349Z,70.20
2024-03-26T07:41:59.291Z,70.89
2024-03-26T07:43:01.407Z,71.00
2024-03-26T07:43:59.297Z,71.30
2024-03-26T07:44:59.295Z,71.20
2024-03-26T07:45:59.234Z,71.51
2024-03-26T07:46:59.264Z,71.51
2024-03-26T07:47:59.267Z,71.30
2024-03-26T07:48:59.231Z,70.76
2024-03-26T07:49:59.251Z,70.65
2024-03-26T07:50:59.268Z,70.45
2024-03-26T07:51:59.179Z,70.14
2024-03-26T07:52:59.222Z,70.55
2024-03-26T07:53:59.203Z,71.06
2024-03-26T07:54:59.134Z,72.16
2024-03-26T07:55:59.129Z,71.14
2024-03-26T07:56:59.182Z,70.69
2024-03-26T07:57:59.134Z,69.46
2024-03-26T07:58:59.115Z,69.56
2024-03-26T07:59:59.119Z,69.53
2024-03-26T08:00:59.083Z,68.19
2024-03-26T08:01:59.166Z,68.50
2024-03-26T08:02:59.072Z,67.57
2024-03-26T08:03:59.053Z,66.85
2024-03-26T08:04:59.092Z,67.26
2024-03-26T08:05:59.032Z,67.54
2024-03-26T08:06:59.012Z,67.65
2024-03-26T08:07:59.006Z,67.54
2024-03-26T08:08:58.999Z,69.05
2024-03-26T08:09:59.048Z,67.82
2024-03-26T08:10:58.991Z,68.02
2024-03-26T08:11:59.119Z,67.99
2024-03-26T08:12:58.967Z,68.30
2024-03-26T08:13:58.969Z,66.25
2024-03-26T08:14:58.942Z,66.66
2024-03-26T08:15:58.921Z,64.81
2024-03-26T08:16:58.990Z,63.89
2024-03-26T08:17:59.552Z,64.26
2024-03-26T08:18:58.887Z,64.06
2024-03-26T08:19:58.940Z,64.09
2024-03-26T08:20:58.912Z,63.96
2024-03-26T08:21:58.886Z,64.26
2024-03-26T08:22:58.854Z,63.34
2024-03-26T08:23:58.926Z,63.13
2024-03-26T08:24:58.870Z,64.26
2024-03-26T08:25:58.809Z,63.44
2024-03-26T08:26:58.816Z,62.52
2024-03-26T08:27:58.819Z,62.11
2024-03-26T08:28:58.799Z,64.37
2024-03-26T08:29:58.799Z,62.41
2024-03-26T08:30:58.753Z,62.49
2024-03-26T08:31:58.834Z,63.62
2024-03-26T08:32:58.773Z,64.64
2024-03-26T08:33:58.719Z,63.18
2024-03-26T08:34:58.727Z,62.77
2024-03-26T08:35:58.728Z,61.13
2024-03-26T08:36:58.697Z,60.54
2024-03-26T08:37:58.683Z,61.67
2024-03-26T08:38:58.684Z,61.67
2024-03-26T08:39:58.656Z,62.70
2024-03-26T08:40:58.665Z,62.15
2024-03-26T08:41:58.800Z,61.23
2024-03-26T08:42:58.654Z,61.54
2024-03-26T08:43:58.659Z,61.74
2024-03-26T08:44:58.782Z,61.20
2024-03-26T08:45:58.598Z,61.71
2024-03-26T08:46:58.615Z,60.79
2024-03-26T08:47:58.647Z,61.20
2024-03-26T08:48:58.573Z,61.20
2024-03-26T08:49:58.550Z,60.49
2024-03-26T08:50:58.591Z,61.30
2024-03-26T08:51:58.536Z,60.28
2024-03-26T08:52:58.588Z,61.00
2024-03-26T08:53:58.533Z,60.58
2024-03-26T08:54:58.489Z,62.74
2024-03-26T08:56:05.391Z,61.10
2024-03-26T08:56:58.511Z,60.89
2024-03-26T08:57:58.468Z,60.79
2024-03-26T08:58:58.555Z,60.35
2024-03-26T08:59:58.489Z,61.79
2024-03-26T09:00:58.440Z,59.64
2024-03-26T09:01:58.419Z,60.25
2024-03-26T09:02:58.441Z,59.64
2024-03-26T09:03:58.396Z,59.64
2024-03-26T09:04:58.406Z,59.94
2024-03-26T09:05:58.426Z,59.84
2024-03-26T09:06:58.356Z,58.07
2024-03-26T09:07:58.401Z,58.28
2024-03-26T09:08:58.389Z,60.02
2024-03-26T09:09:58.339Z,59.61
2024-03-26T09:10:58.496Z,59.71
2024-03-26T09:11:58.355Z,58.28
2024-03-26T09:12:58.318Z,58.79
2024-03-26T09:13:58.299Z,59.71
2024-03-26T09:14:58.408Z,59.99
2024-03-26T09:15:58.261Z,58.79
2024-03-26T09:16:58.281Z,59.20
2024-03-26T09:17:58.294Z,59.61
2024-03-26T09:19:01.526Z,60.02
2024-03-26T09:19:58.229Z,58.69
2024-03-26T09:20:58.242Z,60.22
2024-03-26T09:21:58.221Z,59.81
2024-03-26T09:22:58.328Z,59.30
2024-03-26T09:23:58.220Z,59.81
2024-03-26T09:24:58.183Z,57.25
2024-03-26T09:25:58.161Z,56.64
2024-03-26T09:26:58.170Z,57.25
2024-03-26T09:27:58.138Z,58.48
2024-03-26T09:28:58.158Z,58.30
2024-03-26T09:29:58.168Z,59.09
2024-03-26T09:30:58.106Z,59.43
2024-03-26T09:31:58.120Z,60.15
2024-03-26T09:32:58.098Z,58.61
2024-03-26T09:33:58.089Z,59.20
2024-03-26T09:34:58.121Z,60.02
2024-03-26T09:35:58.104Z,58.69
2024-03-26T09:36:58.128Z,59.30
2024-03-26T09:37:58.040Z,59.68
2024-03-26T09:39:07.238Z,59.04
2024-03-26T09:39:58.026Z,58.43
2024-03-26T09:40:58.027Z,59.76
2024-03-26T09:41:58.018Z,57.40
2024-03-26T09:42:58.012Z,59.35
2024-03-26T09:43:58.734Z,60.03
2024-03-26T09:45:05.537Z,58.70
2024-03-26T09:45:57.968Z,56.87
2024-03-26T09:46:57.972Z,58.20
2024-03-26T09:47:57.948Z,58.27
2024-03-26T09:48:57.911Z,58.17
2024-03-26T09:49:57.904Z,58.96
2024-03-26T09:50:57.965Z,58.25
2024-03-26T09:51:57.893Z,55.46
2024-03-26T09:52:57.921Z,55.08
2024-03-26T09:53:57.889Z,55.99
2024-03-26T09:54:57.885Z,56.51
2024-03-26T09:55:57.845Z,56.40
2024-03-26T09:56:57.831Z,58.22
2024-03-26T09:57:57.819Z,57.81
2024-03-26T09:58:57.840Z,57.09
2024-03-26T09:59:57.832Z,58.29
2024-03-26T10:00:57.803Z,57.88
2024-03-26T10:01:57.791Z,57.27
2024-03-26T10:02:57.782Z,56.15
2024-03-26T10:03:57.778Z,55.84
2024-03-26T10:04:57.812Z,56.07
2024-03-26T10:05:57.754Z,56.56
2024-03-26T10:06:57.732Z,56.15
2024-03-26T10:07:57.725Z,57.27
2024-03-26T10:08:57.734Z,56.86
2024-03-26T10:09:57.691Z,57.68
2024-03-26T10:10:57.736Z,57.07
2024-03-26T10:11:57.712Z,56.66
2024-03-26T10:12:57.670Z,56.63
2024-03-26T10:13:57.670Z,56.04
2024-03-26T10:14:57.696Z,57.04
2024-03-26T10:15:57.658Z,57.86
2024-03-26T10:16:57.661Z,56.02
2024-03-26T10:17:57.681Z,57.14
2024-03-26T10:18:57.614Z,55.89
2024-03-26T10:19:57.624Z,55.79
2024-03-26T10:20:57.583Z,55.38
2024-03-26T10:21:57.567Z,55.99
2024-03-26T10:22:57.580Z,55.48
2024-03-26T10:23:57.551Z,55.89
2024-03-26T10:24:57.544Z,55.99
2024-03-26T10:25:57.579Z,56.71
2024-03-26T10:26:57.515Z,54.97
2024-03-26T10:27:57.517Z,56.71
2024-03-26T10:28:57.527Z,56.30
2024-03-26T10:29:57.500Z,55.89
2024-03-26T10:30:57.477Z,55.79
2024-03-26T10:31:57.465Z,56.71
2024-03-26T10:32:57.504Z,56.60
2024-03-26T10:33:57.439Z,55.18
2024-03-26T10:34:57.471Z,56.81
2024-03-26T10:35:57.431Z,55.69
2024-03-26T10:36:57.425Z,56.02
2024-03-26T10:38:01.561Z,55.82
2024-03-26T10:39:03.530Z,56.73
2024-03-26T10:39:57.404Z,55.51
2024-03-26T10:40:58.602Z,56.40
2024-03-26T10:41:57.434Z,57.12
2024-03-26T10:42:57.348Z,57.32
2024-03-26T10:43:57.348Z,56.10
2024-03-26T10:44:57.332Z,56.10
2024-03-26T10:46:03.527Z,56.10
2024-03-26T10:46:57.451Z,55.79
2024-03-26T10:47:57.327Z,55.10
2024-03-26T10:49:01.441Z,55.91
2024-03-26T10:49:57.276Z,55.91
2024-03-26T10:50:57.300Z,57.01
2024-03-26T10:51:57.258Z,56.40
2024-03-26T10:52:57.275Z,56.20
2024-03-26T10:53:57.263Z,56.81
2024-03-26T10:54:57.233Z,54.74
2024-03-26T10:55:57.218Z,55.56
2024-03-26T10:56:57.211Z,54.94
2024-03-26T10:57:57.411Z,56.07
2024-03-26T10:58:57.214Z,54.03
2024-03-26T10:59:57.176Z,54.74
2024-03-26T11:00:57.165Z,54.74
2024-03-26T11:01:57.164Z,56.17
2024-03-26T11:02:57.174Z,57.19
2024-03-26T11:03:57.129Z,56.45
2024-03-26T11:04:57.174Z,55.43
2024-03-26T11:05:57.122Z,56.65
2024-03-26T11:06:57.102Z,55.71
2024-03-26T11:07:57.096Z,55.30
2024-03-26T11:08:57.079Z,55.68
2024-03-26T11:09:57.216Z,54.46
2024-03-26T11:10:57.097Z,54.26
2024-03-26T11:11:57.054Z,54.16
2024-03-26T11:12:57.043Z,53.24
2024-03-26T11:13:57.054Z,52.40
2024-03-26T11:14:57.025Z,54.33
2024-03-26T11:15:57.003Z,54.03
2024-03-26T11:16:57.041Z,53.11
2024-03-26T11:17:56.978Z,53.11
2024-03-26T11:18:56.981Z,51.87
2024-03-26T11:19:57.017Z,52.10
2024-03-26T11:20:56.947Z,52.37
2024-03-26T11:21:56.952Z,51.26
2024-03-26T11:22:56.948Z,50.45
2024-03-26T11:23:56.920Z,50.85
2024-03-26T11:24:56.921Z,50.98
2024-03-26T11:25:56.893Z,52.58
2024-03-26T11:26:56.898Z,52.17
2024-03-26T11:27:56.877Z,52.68
2024-03-26T11:28:56.899Z,52.66
2024-03-26T11:29:56.859Z,53.37
2024-03-26T11:30:56.841Z,51.92
2024-03-26T11:31:56.871Z,52.03
2024-03-26T11:32:56.823Z,51.82
2024-03-26T11:33:56.814Z,52.51
2024-03-26T11:34:56.950Z,50.78
2024-03-26T11:35:56.777Z,50.78
2024-03-26T11:36:56.772Z,50.98
2024-03-26T11:37:58.993Z,51.18
2024-03-26T11:38:56.784Z,51.29
2024-03-26T11:39:56.746Z,52.89
2024-03-26T11:40:56.777Z,52.28
2024-03-26T11:41:56.724Z,51.16
2024-03-26T11:42:56.711Z,49.56
2024-03-26T11:43:56.692Z,48.75
2024-03-26T11:44:56.710Z,48.44
2024-03-26T11:45:56.669Z,49.18
2024-03-26T11:46:56.745Z,49.58
2024-03-26T11:47:56.690Z,50.68
2024-03-26T11:48:56.652Z,51.46
2024-03-26T11:49:56.625Z,48.93
2024-03-26T11:50:56.635Z,48.63
2024-03-26T11:51:56.617Z,48.40
2024-03-26T11:52:56.662Z,49.41
2024-03-26T11:53:56.600Z,47.69
2024-03-26T11:54:56.592Z,49.21
2024-03-26T11:55:56.564Z,48.30
2024-03-26T11:56:56.552Z,47.38
2024-03-26T11:57:56.575Z,48.10
2024-03-26T11:58:56.670Z,48.40
2024-03-26T11:59:56.554Z,47.79
2024-03-26T12:00:56.512Z,47.49
2024-03-26T12:01:56.509Z,47.49
2024-03-26T12:02:56.495Z,46.78
2024-03-26T12:03:56.484Z,46.70
2024-03-26T12:04:56.525Z,48.52
2024-03-26T12:05:56.471Z,48.42
2024-03-26T12:06:56.453Z,47.51
2024-03-26T12:07:56.462Z,47.71
2024-03-26T12:08:56.443Z,49.64
2024-03-26T12:09:56.426Z,48.02
2024-03-26T12:10:56.480Z,47.20
2024-03-26T12:11:56.382Z,47.10
2024-03-26T12:12:56.411Z,47.00
2024-03-26T12:13:56.413Z,45.68
2024-03-26T12:14:56.377Z,46.09
2024-03-26T12:15:56.357Z,46.70
2024-03-26T12:16:56.367Z,45.58
2024-03-26T12:17:56.353Z,47.20
2024-03-26T12:18:56.317Z,47.41
2024-03-26T12:19:56.298Z,47.69
2024-03-26T12:20:56.302Z,46.39
2024-03-26T12:21:56.282Z,47.59
2024-03-26T12:22:56.310Z,47.49
2024-03-26T12:23:56.263Z,46.27
2024-03-26T12:24:56.261Z,45.86
2024-03-26T12:25:56.249Z,47.49
2024-03-26T12:26:56.256Z,47.79
2024-03-26T12:27:56.212Z,45.56
2024-03-26T12:28:56.264Z,46.47
2024-03-26T12:29:56.190Z,46.67
2024-03-26T12:30:56.187Z,45.66
2024-03-26T12:31:56.178Z,45.97
2024-03-26T12:32:56.167Z,44.85
2024-03-26T12:33:56.148Z,47.28
2024-03-26T12:34:56.171Z,45.56
2024-03-26T12:35:56.120Z,45.84
2024-03-26T12:36:56.129Z,45.74
2024-03-26T12:37:56.129Z,45.43
2024-03-26T12:38:56.092Z,45.64
2024-03-26T12:39:56.092Z,45.54
2024-03-26T12:40:56.099Z,44.52
2024-03-26T12:41:56.078Z,43.51
2024-03-26T12:42:56.048Z,44.44
2024-03-26T12:43:56.049Z,44.34
2024-03-26T12:44:56.066Z,45.05
2024-03-26T12:45:56.015Z,45.15
2024-03-26T12:46:56.044Z,44.24
2024-03-26T12:47:56.000Z,45.86
2024-03-26T12:48:55.989Z,45.86
2024-03-26T12:49:55.997Z,48.10
2024-03-26T12:50:55.984Z,45.56
2024-03-26T12:51:55.952Z,45.05